quinta-feira, 10 de fevereiro de 2011

AVIÃO FAZ POUSO DE EMERGÊNCIA EM MARIALVA, PARANÁ



O avião que pertence ao Aeroclube de Maringá pousou em meio a uma plantação de soja no distrito de Aquidaban. A Anac informou que haviam duas pessoas a bordo e que tiveram ferimentos leves. Todas as revisões da aeronave estavam em dia.


Um avião monomotor modelo Paulistinha AP4 com duas pessoas a bordo precisou fazer um pouso forçado no inicio da noite desta quinta-feira (10), em uma plantação de soja de Marialva, a aproximadamente 20 quilômetros de Maringá. O incidente aconteceu em uma propriedade rural no distrito de Aquidaban, região Noroeste do estado. 

A aeronave teve de pousar minutos após a decolagem do aeroporto Silvio Name Junior de Maringá. Segundo o Cindacta II, era um voo de instrução que precisou fazer uma pouso de emergência.

Segundo a Agência Nacional de Aviação Civil (Anac), o avião pertence ao Aeroclube de Maringá, escola de Aviação Civil. A bordo estavam o piloto e um aluno, que tiveram ferimentos leves, segundo a agência. 

Ainda segundo a Anac, o Certificado de Aeronavegabilidade (CA) da aeronave, que verifica a parte técnica, estava em dia e a Inspeção Anual de Manutenção (IAM) foi renovada em janeiro deste ano e é valida até 2012. 

Uma perícia será feita pelo Centro de Prevenção de Acidentes Aéreos da Aeronáutica. Segundo a Anac, o aluno e o professor serão ouvidos pela Aeronáutica

Uma equipe do Corpo de Bombeiros de Marialva estava no local até por volta das 20h10.

fonte/GazetaMaringá/foto/RPCTV
Enhanced by Zemanta

PASSAREDO ENCERRA OPERAÇÕES EM BAURU NA PRÓXIMA SEGUNDA-FEIRA

A Passaredo Linhas Aéreas irá encerrar suas operações no aeroporto Moussa Tobias, após apenas um ano e cinco meses de atividades em Bauru. A partir de 14 de fevereiro, a empresa deixa de oferecer voos na cidade e também nos municípios de Presidente Prudente e Marília.

Segundo informou a assessoria de imprensa da Passaredo, a rotas de curta distância e a demanda insuficiente para a oferta de assentos das aeronaves utilizadas em Bauru foram os motivos que levaram a companhia a encerrar as operações. A assessoria destaca, entretanto, que os consumidores com passagens compradas para embarque em data posterior à próxima segunda-feira já estão sendo contatados para as devidas acomodações nos voos da Gol Linhas Aéreas. Se necessário, os bilhetes poderão ser trocados também na outra companhia que continua atuando na cidade, a TAM/Pantanal.

A reportagem do JC entrou em contato com a Azul para saber se há expectativas de a empresa começar a operar na cidade, conforme tem sido especulado desde o final do ano passado. Por meio da assessoria de imprensa, a companhia informou possuir um plano de expansão que pretende atender 50 cidades do País até o final de 2011, incluindo o Interior de São Paulo. Mas, no momento, afirma que não há definição sobre seu ingresso no aeroporto de Bauru.
 
fonte/TurSP
Enhanced by Zemanta

ACIDENTE AÉREO MATA SEIS PESSOAS NA IRLANDA


Seis pessoas morreram na queda de um um avião da empresa FLIGHTLINE, registro EC-ITP, um Fairchild SA-227BC Metro III, no aeroporto de Cok, na Irlanda. Na hora do pouso a pista estava encoberta por densa neblina. 

O voo era proveniente de Belfast, na Irlanda do Norte. Havia 10 passageiros e dois tripulantes a bordo da aeronave. 

Antes da queda, o piloto tentou aterrissar uma vez, mas acabnou abortando a manobra, disseram autoridades. 

Metars:
EICK 101100Z 09009KT 1200N 5000S VCFG FEW001 BKN002 BKN005 06/06 Q1009 BECMG 3000
EICK 101030Z 09007KT 1800 R17/P2000 R35/P2000 BR FEW001 SCT002 BKN003 06/06 Q1010 BECMG VIS 5000
EICK 101000Z 09008KT 0400 R17/0600N R35/0450N FG BKN001 05/05 Q1010 NOSIG
EICK 100930Z 08005KT 050V110 0300 R17/0375N R35/0350N FG BKN001 04/04 Q1010 NOSIG
EICK 100900Z 06003KT 0300 R17/0325N R35/0450N FG SCT001 03/03 Q1010 BECMG 3000
EICK 100830Z 04004KT 0300 R17/0400 R35/0450 FG FEW001 02/02 Q1010 BECMG 3000
EICK 100800Z 01004KT 0400N FG FEW001 R17/0400 R35/P2000 02/02 Q1010 NOSIG
EICK 100730Z 01003KT 0300 R17/0650N R35/0700D FG FEW002 02/02 Q1010 NOSIG
EICK 100700Z 08005KT 0500N 9999SE R17/0800U R35/0600D PRFG FEW002 02/02 Q1010 TEMPO 0300
EICK 100630Z 36004KT 0800E 9999N R17/1800U R35/1800U BCFG 03/03 Q1011 TEMPO 0300
EICK 100630Z 36004KT 0800E 9999N R17/1800U R35/1800U BCFG FEW002 03/03 Q1011 TEMPO 0300
EICK 100600Z 33006KT 0900N R17/1300U R35/1500U BCFG FEW002 04/04 Q1011 TEMPO 0300
 


fonte/foto/AvHerald  

MÍSTERIO REVELADO - ANTOINE SAINT-EXUPÉRY...

Foi um segredo guardado durante 64 anos. Horst Rippert, piloto alemão da Luftwaffe, admitiu, aos 88 anos, ter abatido Antoine de St Exu...